sensor_id;sensor_type;location;lat;lon;timestamp;pressure;altitude;pressure_sealevel;temperature;humidity
39769;BME280;38939;47.824;14.642;2022-12-18T00:00:55;98146.16;;;-3.98;76.31
39769;BME280;38939;47.824;14.642;2022-12-18T00:01:57;98147.66;;;-3.94;76.67
39769;BME280;38939;47.824;14.642;2022-12-18T00:03:00;98138.22;;;-3.92;75.92
39769;BME280;38939;47.824;14.642;2022-12-18T00:04:06;98139.69;;;-3.88;76.45
39769;BME280;38939;47.824;14.642;2022-12-18T00:05:09;98139.69;;;-3.88;76.05
39769;BME280;38939;47.824;14.642;2022-12-18T00:06:11;98142.97;;;-3.86;76.28
39769;BME280;38939;47.824;14.642;2022-12-18T00:07:13;98139.50;;;-3.85;76.19
39769;BME280;38939;47.824;14.642;2022-12-18T00:08:15;98142.13;;;-3.86;76.67
39769;BME280;38939;47.824;14.642;2022-12-18T00:09:17;98140.50;;;-3.87;76.34
39769;BME280;38939;47.824;14.642;2022-12-18T00:10:19;98147.25;;;-3.86;76.57
39769;BME280;38939;47.824;14.642;2022-12-18T00:11:22;98142.97;;;-3.86;75.84
39769;BME280;38939;47.824;14.642;2022-12-18T00:12:24;98146.28;;;-3.84;76.48
39769;BME280;38939;47.824;14.642;2022-12-18T00:13:26;98144.47;;;-3.82;76.14
39769;BME280;38939;47.824;14.642;2022-12-18T00:14:28;98146.91;;;-3.80;76.27
39769;BME280;38939;47.824;14.642;2022-12-18T00:15:30;98149.72;;;-3.85;76.50
39769;BME280;38939;47.824;14.642;2022-12-18T00:16:35;98144.88;;;-3.89;76.18
39769;BME280;38939;47.824;14.642;2022-12-18T00:17:38;98149.97;;;-3.89;76.16
39769;BME280;38939;47.824;14.642;2022-12-18T00:18:40;98152.59;;;-3.91;76.44
39769;BME280;38939;47.824;14.642;2022-12-18T00:19:43;98152.59;;;-3.91;75.73
39769;BME280;38939;47.824;14.642;2022-12-18T00:20:45;98148.41;;;-3.92;76.37
39769;BME280;38939;47.824;14.642;2022-12-18T00:21:47;98146.88;;;-3.96;76.15
39769;BME280;38939;47.824;14.642;2022-12-18T00:22:49;98145.59;;;-4.03;75.80
39769;BME280;38939;47.824;14.642;2022-12-18T00:23:51;98145.16;;;-4.11;75.97
39769;BME280;38939;47.824;14.642;2022-12-18T00:24:53;98152.31;;;-4.18;75.87
39769;BME280;38939;47.824;14.642;2022-12-18T00:25:58;98154.75;;;-4.16;75.71
39769;BME280;38939;47.824;14.642;2022-12-18T00:27:00;98147.84;;;-4.14;75.69
39769;BME280;38939;47.824;14.642;2022-12-18T00:28:02;98151.13;;;-4.12;76.06
39769;BME280;38939;47.824;14.642;2022-12-18T00:29:06;98151.13;;;-4.12;76.15
39769;BME280;38939;47.824;14.642;2022-12-18T00:30:09;98154.53;;;-4.12;75.97
39769;BME280;38939;47.824;14.642;2022-12-18T00:31:13;98156.09;;;-4.09;76.34
39769;BME280;38939;47.824;14.642;2022-12-18T00:32:15;98164.41;;;-4.06;76.33
39769;BME280;38939;47.824;14.642;2022-12-18T00:33:17;98160.81;;;-4.02;76.77
39769;BME280;38939;47.824;14.642;2022-12-18T00:34:19;98157.25;;;-3.99;76.01
39769;BME280;38939;47.824;14.642;2022-12-18T00:35:21;98161.38;;;-3.96;76.41
39769;BME280;38939;47.824;14.642;2022-12-18T00:36:24;98160.41;;;-3.94;76.42
39769;BME280;38939;47.824;14.642;2022-12-18T00:37:26;98162.03;;;-3.93;76.43
39769;BME280;38939;47.824;14.642;2022-12-18T00:38:28;98161.06;;;-3.90;76.07
39769;BME280;38939;47.824;14.642;2022-12-18T00:39:30;98167.72;;;-3.88;75.60
39769;BME280;38939;47.824;14.642;2022-12-18T00:40:31;98166.00;;;-3.87;75.99
39769;BME280;38939;47.824;14.642;2022-12-18T00:41:33;98174.47;;;-3.87;75.20
39769;BME280;38939;47.824;14.642;2022-12-18T00:42:54;98168.94;;;-3.95;75.10
39769;BME280;38939;47.824;14.642;2022-12-18T00:43:58;98172.56;;;-3.99;75.95
39769;BME280;38939;47.824;14.642;2022-12-18T00:45:00;98165.53;;;-4.11;75.12
39769;BME280;38939;47.824;14.642;2022-12-18T00:46:04;98168.72;;;-4.24;75.65
39769;BME280;38939;47.824;14.642;2022-12-18T00:47:07;98169.72;;;-4.26;75.30
39769;BME280;38939;47.824;14.642;2022-12-18T00:48:09;98161.97;;;-4.25;75.44
39769;BME280;38939;47.824;14.642;2022-12-18T00:49:11;98169.59;;;-4.25;75.92
39769;BME280;38939;47.824;14.642;2022-12-18T00:50:14;98164.44;;;-4.23;75.75
39769;BME280;38939;47.824;14.642;2022-12-18T00:51:16;98177.25;;;-4.25;75.39
39769;BME280;38939;47.824;14.642;2022-12-18T00:52:18;98179.72;;;-4.23;76.14
39769;BME280;38939;47.824;14.642;2022-12-18T00:53:20;98177.84;;;-4.19;75.72
39769;BME280;38939;47.824;14.642;2022-12-18T00:54:22;98184.50;;;-4.17;75.41
39769;BME280;38939;47.824;14.642;2022-12-18T00:55:24;98172.50;;;-4.15;75.39
39769;BME280;38939;47.824;14.642;2022-12-18T00:56:26;98167.28;;;-4.12;75.42
39769;BME280;38939;47.824;14.642;2022-12-18T00:57:28;98172.28;;;-4.10;75.31
39769;BME280;38939;47.824;14.642;2022-12-18T00:58:30;98171.38;;;-4.09;75.56
39769;BME280;38939;47.824;14.642;2022-12-18T00:59:32;98174.69;;;-4.07;75.48
39769;BME280;38939;47.824;14.642;2022-12-18T01:00:35;98171.31;;;-4.08;75.14
39769;BME280;38939;47.824;14.642;2022-12-18T01:01:37;98168.66;;;-4.06;75.38
39769;BME280;38939;47.824;14.642;2022-12-18T01:02:39;98171.97;;;-4.04;75.16
39769;BME280;38939;47.824;14.642;2022-12-18T01:03:41;98171.97;;;-4.04;75.13
39769;BME280;38939;47.824;14.642;2022-12-18T01:04:43;98164.41;;;-4.06;75.62
39769;BME280;38939;47.824;14.642;2022-12-18T01:05:46;98165.22;;;-4.05;75.43
39769;BME280;38939;47.824;14.642;2022-12-18T01:06:48;98161.88;;;-4.06;75.81
39769;BME280;38939;47.824;14.642;2022-12-18T01:07:50;98165.38;;;-4.08;75.85
39769;BME280;38939;47.824;14.642;2022-12-18T01:08:52;98174.69;;;-4.07;75.97
39769;BME280;38939;47.824;14.642;2022-12-18T01:09:54;98169.59;;;-4.07;75.68
39769;BME280;38939;47.824;14.642;2022-12-18T01:10:56;98171.31;;;-4.08;75.49
39769;BME280;38939;47.824;14.642;2022-12-18T01:11:58;98173.31;;;-4.14;75.75
39769;BME280;38939;47.824;14.642;2022-12-18T01:13:00;98172.59;;;-4.16;76.48
39769;BME280;38939;47.824;14.642;2022-12-18T01:14:02;98174.25;;;-4.15;76.51
39769;BME280;38939;47.824;14.642;2022-12-18T01:15:04;98176.50;;;-4.27;76.41
39769;BME280;38939;47.824;14.642;2022-12-18T01:16:07;98180.66;;;-4.24;77.20
39769;BME280;38939;47.824;14.642;2022-12-18T01:17:10;98175.75;;;-4.29;77.19
39769;BME280;38939;47.824;14.642;2022-12-18T01:18:12;98174.88;;;-4.28;77.14
39769;BME280;38939;47.824;14.642;2022-12-18T01:19:14;98177.41;;;-4.28;77.22
39769;BME280;38939;47.824;14.642;2022-12-18T01:20:15;98189.41;;;-4.30;77.14
39769;BME280;38939;47.824;14.642;2022-12-18T01:21:19;98185.94;;;-4.29;77.30
39769;BME280;38939;47.824;14.642;2022-12-18T01:22:21;98196.81;;;-4.25;77.42
39769;BME280;38939;47.824;14.642;2022-12-18T01:23:23;98191.78;;;-4.27;77.79
39769;BME280;38939;47.824;14.642;2022-12-18T01:24:25;98192.41;;;-4.22;77.72
39769;BME280;38939;47.824;14.642;2022-12-18T01:25:26;98192.81;;;-4.13;78.16
39769;BME280;38939;47.824;14.642;2022-12-18T01:26:28;98193.41;;;-4.08;77.57
39769;BME280;38939;47.824;14.642;2022-12-18T01:27:32;98192.44;;;-4.06;77.51
39769;BME280;38939;47.824;14.642;2022-12-18T01:28:34;98194.88;;;-4.04;77.32
39769;BME280;38939;47.824;14.642;2022-12-18T01:29:36;98195.56;;;-4.00;77.54
39769;BME280;38939;47.824;14.642;2022-12-18T01:30:38;98199.53;;;-3.95;77.78
39769;BME280;38939;47.824;14.642;2022-12-18T01:31:40;98196.97;;;-3.95;77.60
39769;BME280;38939;47.824;14.642;2022-12-18T01:32:42;98200.28;;;-3.93;77.30
39769;BME280;38939;47.824;14.642;2022-12-18T01:33:44;98208.53;;;-3.88;77.42
39769;BME280;38939;47.824;14.642;2022-12-18T01:34:46;98198.97;;;-3.84;77.24
39769;BME280;38939;47.824;14.642;2022-12-18T01:35:47;98194.63;;;-3.82;77.39
39769;BME280;38939;47.824;14.642;2022-12-18T01:36:50;98202.19;;;-3.80;77.21
39769;BME280;38939;47.824;14.642;2022-12-18T01:37:55;98200.69;;;-3.85;77.08
39769;BME280;38939;47.824;14.642;2022-12-18T01:38:58;98202.56;;;-3.88;76.92
39769;BME280;38939;47.824;14.642;2022-12-18T01:40:00;98200.03;;;-3.88;76.59
39769;BME280;38939;47.824;14.642;2022-12-18T01:41:02;98202.44;;;-3.85;76.97
39769;BME280;38939;47.824;14.642;2022-12-18T01:42:10;98205.97;;;-3.88;76.79
39769;BME280;38939;47.824;14.642;2022-12-18T01:43:12;98205.97;;;-3.88;76.38
39769;BME280;38939;47.824;14.642;2022-12-18T01:45:34;98213.75;;;-3.91;77.19
39769;BME280;38939;47.824;14.642;2022-12-18T01:46:36;98217.88;;;-3.88;76.58
39769;BME280;38939;47.824;14.642;2022-12-18T01:48:11;98213.53;;;-3.86;76.39
39769;BME280;38939;47.824;14.642;2022-12-18T01:49:06;98213.63;;;-3.88;76.48
39769;BME280;38939;47.824;14.642;2022-12-18T01:50:09;98211.88;;;-3.87;76.53
39769;BME280;38939;47.824;14.642;2022-12-18T01:51:12;98212.56;;;-3.84;76.91
39769;BME280;38939;47.824;14.642;2022-12-18T01:52:14;98213.13;;;-3.78;76.40
39769;BME280;38939;47.824;14.642;2022-12-18T01:53:17;98216.44;;;-3.76;77.05
39769;BME280;38939;47.824;14.642;2022-12-18T01:54:20;98212.06;;;-3.74;76.73
39769;BME280;38939;47.824;14.642;2022-12-18T01:55:23;98215.53;;;-3.75;76.99
39769;BME280;38939;47.824;14.642;2022-12-18T01:56:25;98214.78;;;-3.77;76.16
39769;BME280;38939;47.824;14.642;2022-12-18T01:57:27;98218.91;;;-3.75;76.79
39769;BME280;38939;47.824;14.642;2022-12-18T01:58:30;98216.34;;;-3.75;76.29
39769;BME280;38939;47.824;14.642;2022-12-18T01:59:35;98213.00;;;-3.75;76.70
39769;BME280;38939;47.824;14.642;2022-12-18T02:00:38;98213.81;;;-3.75;76.24
39769;BME280;38939;47.824;14.642;2022-12-18T02:01:40;98212.38;;;-3.80;76.05
39769;BME280;38939;47.824;14.642;2022-12-18T02:02:43;98222.59;;;-3.80;76.43
39769;BME280;38939;47.824;14.642;2022-12-18T02:03:45;98220.97;;;-3.82;76.21
39769;BME280;38939;47.824;14.642;2022-12-18T02:04:47;98221.84;;;-3.83;76.57
39769;BME280;38939;47.824;14.642;2022-12-18T02:08:36;98219.47;;;-3.86;76.59
39769;BME280;38939;47.824;14.642;2022-12-18T02:09:47;98215.25;;;-3.87;76.10
39769;BME280;38939;47.824;14.642;2022-12-18T02:10:57;98215.00;;;-3.82;75.96
39769;BME280;38939;47.824;14.642;2022-12-18T02:12:08;98218.19;;;-3.94;76.11
39769;BME280;38939;47.824;14.642;2022-12-18T02:14:23;98223.47;;;-4.15;77.31
39769;BME280;38939;47.824;14.642;2022-12-18T02:15:35;98222.59;;;-4.14;77.88
39769;BME280;38939;47.824;14.642;2022-12-18T02:18:42;98219.94;;;-4.12;77.46
39769;BME280;38939;47.824;14.642;2022-12-18T02:21:52;98213.75;;;-4.24;77.67
39769;BME280;38939;47.824;14.642;2022-12-18T02:23:56;98213.59;;;-4.21;77.89
39769;BME280;38939;47.824;14.642;2022-12-18T02:25:13;98212.78;;;-4.22;78.34
39769;BME280;38939;47.824;14.642;2022-12-18T02:26:55;98217.63;;;-4.17;78.10
39769;BME280;38939;47.824;14.642;2022-12-18T02:27:48;98210.31;;;-4.23;78.79
39769;BME280;38939;47.824;14.642;2022-12-18T02:29:53;98207.81;;;-4.25;78.58
39769;BME280;38939;47.824;14.642;2022-12-18T02:30:59;98206.63;;;-4.17;78.91
39769;BME280;38939;47.824;14.642;2022-12-18T02:32:03;98207.44;;;-4.17;78.65
39769;BME280;38939;47.824;14.642;2022-12-18T02:33:07;98210.59;;;-4.29;78.65
39769;BME280;38939;47.824;14.642;2022-12-18T02:34:10;98205.66;;;-4.32;79.53
39769;BME280;38939;47.824;14.642;2022-12-18T02:35:15;98209.63;;;-4.27;80.00
39769;BME280;38939;47.824;14.642;2022-12-18T02:36:18;98211.84;;;-4.20;79.38
39769;BME280;38939;47.824;14.642;2022-12-18T02:37:21;98209.91;;;-4.15;80.05
39769;BME280;38939;47.824;14.642;2022-12-18T02:38:23;98210.22;;;-4.22;79.03
39769;BME280;38939;47.824;14.642;2022-12-18T02:39:26;98218.13;;;-4.26;79.30
39769;BME280;38939;47.824;14.642;2022-12-18T02:40:30;98210.97;;;-4.19;79.55
39769;BME280;38939;47.824;14.642;2022-12-18T02:41:33;98208.50;;;-4.21;79.29
39769;BME280;38939;47.824;14.642;2022-12-18T02:42:35;98204.59;;;-4.28;79.52
39769;BME280;38939;47.824;14.642;2022-12-18T02:43:37;98207.91;;;-4.26;79.63
39769;BME280;38939;47.824;14.642;2022-12-18T02:44:49;98210.31;;;-4.23;79.35
39769;BME280;38939;47.824;14.642;2022-12-18T02:46:53;98205.06;;;-4.37;79.38
39769;BME280;38939;47.824;14.642;2022-12-18T02:47:55;98203.34;;;-4.37;80.30
39769;BME280;38939;47.824;14.642;2022-12-18T02:49:01;98210.75;;;-4.32;79.83
39769;BME280;38939;47.824;14.642;2022-12-18T02:51:15;98212.72;;;-4.37;79.69
39769;BME280;38939;47.824;14.642;2022-12-18T02:56:54;98208.66;;;-4.42;80.48
39769;BME280;38939;47.824;14.642;2022-12-18T02:59:13;98215.03;;;-4.33;80.17
39769;BME280;38939;47.824;14.642;2022-12-18T03:00:18;98213.00;;;-4.44;79.66
39769;BME280;38939;47.824;14.642;2022-12-18T03:01:27;98213.16;;;-4.47;79.83
39769;BME280;38939;47.824;14.642;2022-12-18T03:02:44;98210.41;;;-4.42;80.21
39769;BME280;38939;47.824;14.642;2022-12-18T03:03:54;98213.28;;;-4.32;79.98
39769;BME280;38939;47.824;14.642;2022-12-18T03:05:11;98206.63;;;-4.35;80.01
39769;BME280;38939;47.824;14.642;2022-12-18T03:07:20;98213.09;;;-4.45;80.19
39769;BME280;38939;47.824;14.642;2022-12-18T03:08:26;98222.53;;;-4.47;79.57
39769;BME280;38939;47.824;14.642;2022-12-18T03:09:37;98221.53;;;-4.45;79.92
39769;BME280;38939;47.824;14.642;2022-12-18T03:10:42;98215.50;;;-4.42;79.83
39769;BME280;38939;47.824;14.642;2022-12-18T03:11:49;98209.78;;;-4.47;80.25
39769;BME280;38939;47.824;14.642;2022-12-18T03:13:13;98220.16;;;-4.50;79.86
39769;BME280;38939;47.824;14.642;2022-12-18T03:14:17;98214.66;;;-4.43;80.06
39769;BME280;38939;47.824;14.642;2022-12-18T03:15:26;98222.69;;;-4.50;79.90
39769;BME280;38939;47.824;14.642;2022-12-18T03:16:30;98216.63;;;-4.48;80.12
39769;BME280;38939;47.824;14.642;2022-12-18T03:17:33;98222.25;;;-4.58;80.02
39769;BME280;38939;47.824;14.642;2022-12-18T03:18:36;98221.69;;;-4.65;80.94
39769;BME280;38939;47.824;14.642;2022-12-18T03:19:40;98220.88;;;-4.66;81.04
39769;BME280;38939;47.824;14.642;2022-12-18T03:20:44;98217.66;;;-4.69;81.22
39769;BME280;38939;47.824;14.642;2022-12-18T03:21:50;98222.81;;;-4.71;81.06
39769;BME280;38939;47.824;14.642;2022-12-18T03:22:54;98227.75;;;-4.68;81.32
39769;BME280;38939;47.824;14.642;2022-12-18T03:23:59;98228.94;;;-4.75;81.04
39769;BME280;38939;47.824;14.642;2022-12-18T03:25:03;98231.13;;;-4.67;81.63
39769;BME280;38939;47.824;14.642;2022-12-18T03:26:07;98233.53;;;-4.64;81.75
39769;BME280;38939;47.824;14.642;2022-12-18T03:27:11;98229.09;;;-4.60;81.54
39769;BME280;38939;47.824;14.642;2022-12-18T03:28:15;98236.75;;;-4.60;80.75
39769;BME280;38939;47.824;14.642;2022-12-18T03:29:22;98235.25;;;-4.65;80.68
39769;BME280;38939;47.824;14.642;2022-12-18T03:30:26;98235.81;;;-4.77;81.10
39769;BME280;38939;47.824;14.642;2022-12-18T03:31:30;98230.59;;;-4.74;81.22
39769;BME280;38939;47.824;14.642;2022-12-18T03:32:36;98237.78;;;-4.65;81.36
39769;BME280;38939;47.824;14.642;2022-12-18T03:33:42;98232.84;;;-4.68;80.79
39769;BME280;38939;47.824;14.642;2022-12-18T03:34:45;98231.19;;;-4.69;80.65
39769;BME280;38939;47.824;14.642;2022-12-18T03:35:50;98234.34;;;-4.64;80.68
39769;BME280;38939;47.824;14.642;2022-12-18T03:36:52;98233.38;;;-4.61;80.95
39769;BME280;38939;47.824;14.642;2022-12-18T03:37:54;98236.28;;;-4.69;80.50
39769;BME280;38939;47.824;14.642;2022-12-18T03:38:56;98239.00;;;-4.72;80.81
39769;BME280;38939;47.824;14.642;2022-12-18T03:39:58;98241.25;;;-4.66;80.52
39769;BME280;38939;47.824;14.642;2022-12-18T03:41:06;98235.78;;;-4.58;80.74
39769;BME280;38939;47.824;14.642;2022-12-18T03:46:01;98229.59;;;-4.52;79.43
39769;BME280;38939;47.824;14.642;2022-12-18T03:47:08;98224.56;;;-4.54;79.29
39769;BME280;38939;47.824;14.642;2022-12-18T03:49:19;98219.41;;;-4.52;80.02
39769;BME280;38939;47.824;14.642;2022-12-18T03:50:29;98230.69;;;-4.58;79.34
39769;BME280;38939;47.824;14.642;2022-12-18T03:54:03;98217.28;;;-4.62;79.49
39769;BME280;38939;47.824;14.642;2022-12-18T03:55:06;98216.09;;;-4.54;80.08
39769;BME280;38939;47.824;14.642;2022-12-18T03:56:09;98212.88;;;-4.58;79.39
39769;BME280;38939;47.824;14.642;2022-12-18T03:57:19;98215.63;;;-4.63;79.85
39769;BME280;38939;47.824;14.642;2022-12-18T03:58:23;98218.16;;;-4.63;79.87
39769;BME280;38939;47.824;14.642;2022-12-18T03:59:27;98214.72;;;-4.62;79.66
39769;BME280;38939;47.824;14.642;2022-12-18T04:00:30;98213.81;;;-4.60;79.75
39769;BME280;38939;47.824;14.642;2022-12-18T04:01:37;98220.44;;;-4.56;79.91
39769;BME280;38939;47.824;14.642;2022-12-18T04:02:43;98216.53;;;-4.64;79.30
39769;BME280;38939;47.824;14.642;2022-12-18T04:03:46;98216.97;;;-4.73;79.22
39769;BME280;38939;47.824;14.642;2022-12-18T04:04:53;98210.38;;;-4.77;79.50
39769;BME280;38939;47.824;14.642;2022-12-18T04:05:59;98218.47;;;-4.69;80.54
39769;BME280;38939;47.824;14.642;2022-12-18T04:07:02;98222.75;;;-4.69;79.67
39769;BME280;38939;47.824;14.642;2022-12-18T04:08:04;98217.06;;;-4.74;80.31
39769;BME280;38939;47.824;14.642;2022-12-18T04:09:06;98227.06;;;-4.71;80.67
39769;BME280;38939;47.824;14.642;2022-12-18T04:10:08;98222.97;;;-4.74;80.04
39769;BME280;38939;47.824;14.642;2022-12-18T04:11:11;98223.84;;;-4.75;80.12
39769;BME280;38939;47.824;14.642;2022-12-18T04:12:13;98227.75;;;-4.68;80.44
39769;BME280;38939;47.824;14.642;2022-12-18T04:13:27;98227.91;;;-4.71;80.05
39769;BME280;38939;47.824;14.642;2022-12-18T04:14:29;98235.69;;;-4.74;79.91
39769;BME280;38939;47.824;14.642;2022-12-18T04:15:33;98234.19;;;-4.78;79.40
39769;BME280;38939;47.824;14.642;2022-12-18T04:16:36;98241.59;;;-4.73;80.28
39769;BME280;38939;47.824;14.642;2022-12-18T04:17:38;98234.88;;;-4.74;80.14
39769;BME280;38939;47.824;14.642;2022-12-18T04:18:40;98233.72;;;-4.69;80.25
39769;BME280;38939;47.824;14.642;2022-12-18T04:19:42;98237.78;;;-4.65;80.03
39769;BME280;38939;47.824;14.642;2022-12-18T04:20:44;98239.75;;;-4.70;79.88
39769;BME280;38939;47.824;14.642;2022-12-18T04:21:45;98240.72;;;-4.72;80.15
39769;BME280;38939;47.824;14.642;2022-12-18T04:22:48;98241.75;;;-4.76;79.91
39769;BME280;38939;47.824;14.642;2022-12-18T04:23:49;98245.88;;;-4.74;79.87
39769;BME280;38939;47.824;14.642;2022-12-18T04:24:51;98250.81;;;-4.71;80.13
39769;BME280;38939;47.824;14.642;2022-12-18T04:25:53;98245.06;;;-4.74;79.91
39769;BME280;38939;47.824;14.642;2022-12-18T04:26:55;98249.47;;;-4.78;80.06
39769;BME280;38939;47.824;14.642;2022-12-18T04:27:57;98247.97;;;-4.82;80.68
39769;BME280;38939;47.824;14.642;2022-12-18T04:28:59;98248.25;;;-4.88;80.44
39769;BME280;38939;47.824;14.642;2022-12-18T04:30:01;98245.66;;;-4.87;80.37
39769;BME280;38939;47.824;14.642;2022-12-18T04:31:03;98250.56;;;-4.84;80.56
39769;BME280;38939;47.824;14.642;2022-12-18T04:32:05;98251.94;;;-4.76;80.94
39769;BME280;38939;47.824;14.642;2022-12-18T04:33:10;98245.59;;;-4.68;80.64
39769;BME280;38939;47.824;14.642;2022-12-18T04:34:12;98248.19;;;-4.69;80.15
39769;BME280;38939;47.824;14.642;2022-12-18T04:35:14;98248.13;;;-4.68;80.02
39769;BME280;38939;47.824;14.642;2022-12-18T04:36:16;98249.31;;;-4.75;79.67
39769;BME280;38939;47.824;14.642;2022-12-18T04:37:18;98251.25;;;-4.80;79.83
39769;BME280;38939;47.824;14.642;2022-12-18T04:38:19;98251.25;;;-4.80;80.15
39769;BME280;38939;47.824;14.642;2022-12-18T04:39:21;98247.81;;;-4.79;79.94
39769;BME280;38939;47.824;14.642;2022-12-18T04:40:23;98256.19;;;-4.77;79.65
39769;BME280;38939;47.824;14.642;2022-12-18T04:41:25;98253.75;;;-4.78;80.21
39769;BME280;38939;47.824;14.642;2022-12-18T04:42:27;98251.94;;;-4.76;80.04
39769;BME280;38939;47.824;14.642;2022-12-18T04:43:28;98247.50;;;-4.73;79.91
39769;BME280;38939;47.824;14.642;2022-12-18T04:44:30;98249.31;;;-4.75;80.37
39769;BME280;38939;47.824;14.642;2022-12-18T04:45:32;98248.72;;;-4.80;80.30
39769;BME280;38939;47.824;14.642;2022-12-18T04:46:34;98247.50;;;-4.73;80.00
39769;BME280;38939;47.824;14.642;2022-12-18T04:47:36;98251.56;;;-4.69;80.17
39769;BME280;38939;47.824;14.642;2022-12-18T04:48:38;98258.31;;;-4.68;80.37
39769;BME280;38939;47.824;14.642;2022-12-18T04:49:40;98257.56;;;-4.70;79.60
39769;BME280;38939;47.824;14.642;2022-12-18T04:50:41;98254.94;;;-4.68;79.79
39769;BME280;38939;47.824;14.642;2022-12-18T04:51:43;98256.44;;;-4.64;79.89
39769;BME280;38939;47.824;14.642;2022-12-18T04:52:45;98258.16;;;-4.65;79.93
39769;BME280;38939;47.824;14.642;2022-12-18T04:53:47;98260.56;;;-4.62;79.46
39769;BME280;38939;47.824;14.642;2022-12-18T04:54:48;98262.06;;;-4.57;79.12
39769;BME280;38939;47.824;14.642;2022-12-18T04:56:01;98256.84;;;-4.54;79.65
39769;BME280;38939;47.824;14.642;2022-12-18T04:57:03;98260.69;;;-4.65;78.36
39769;BME280;38939;47.824;14.642;2022-12-18T04:58:05;98261.28;;;-4.77;78.57
39769;BME280;38939;47.824;14.642;2022-12-18T04:59:07;98260.00;;;-4.86;79.22
39769;BME280;38939;47.824;14.642;2022-12-18T05:00:09;98256.78;;;-4.89;79.14
39769;BME280;38939;47.824;14.642;2022-12-18T05:01:12;98260.00;;;-4.86;79.22
39769;BME280;38939;47.824;14.642;2022-12-18T05:02:14;98264.22;;;-4.85;79.75
39769;BME280;38939;47.824;14.642;2022-12-18T05:03:18;98265.50;;;-4.95;79.75
39769;BME280;38939;47.824;14.642;2022-12-18T05:04:19;98263.81;;;-4.94;80.21
39769;BME280;38939;47.824;14.642;2022-12-18T05:05:23;98262.97;;;-4.95;79.95
39769;BME280;38939;47.824;14.642;2022-12-18T05:06:24;98273.06;;;-4.93;79.64
39769;BME280;38939;47.824;14.642;2022-12-18T05:07:26;98267.78;;;-4.89;79.56
39769;BME280;38939;47.824;14.642;2022-12-18T05:08:28;98269.09;;;-4.99;79.39
39769;BME280;38939;47.824;14.642;2022-12-18T05:09:30;98267.03;;;-5.10;79.59
39769;BME280;38939;47.824;14.642;2022-12-18T05:10:32;98267.03;;;-5.10;80.54
39769;BME280;38939;47.824;14.642;2022-12-18T05:11:38;98271.84;;;-5.04;80.58
39769;BME280;38939;47.824;14.642;2022-12-18T05:12:40;98269.66;;;-5.11;80.34
39769;BME280;38939;47.824;14.642;2022-12-18T05:14:01;98269.81;;;-5.14;79.98
39769;BME280;38939;47.824;14.642;2022-12-18T05:15:03;98268.09;;;-5.14;80.08
39769;BME280;38939;47.824;14.642;2022-12-18T05:16:05;98262.88;;;-5.11;80.53
39769;BME280;38939;47.824;14.642;2022-12-18T05:17:09;98268.63;;;-5.07;80.18
39769;BME280;38939;47.824;14.642;2022-12-18T05:18:10;98265.25;;;-5.08;80.06
39769;BME280;38939;47.824;14.642;2022-12-18T05:19:12;98266.00;;;-5.06;80.18
39769;BME280;38939;47.824;14.642;2022-12-18T05:20:14;98265.41;;;-5.11;79.82
39769;BME280;38939;47.824;14.642;2022-12-18T05:21:16;98272.94;;;-5.09;80.00
39769;BME280;38939;47.824;14.642;2022-12-18T05:22:21;98264.38;;;-5.07;80.22
39769;BME280;38939;47.824;14.642;2022-12-18T05:23:26;98267.19;;;-5.13;80.36
39769;BME280;38939;47.824;14.642;2022-12-18T05:24:28;98257.78;;;-5.11;80.25
39769;BME280;38939;47.824;14.642;2022-12-18T05:25:30;98274.56;;;-5.07;79.98
39769;BME280;38939;47.824;14.642;2022-12-18T05:26:31;98270.28;;;-5.06;80.37
39769;BME280;38939;47.824;14.642;2022-12-18T05:27:33;98262.03;;;-5.11;79.93
39769;BME280;38939;47.824;14.642;2022-12-18T05:28:35;98268.63;;;-5.07;79.67
39769;BME280;38939;47.824;14.642;2022-12-18T05:29:37;98272.00;;;-5.07;80.24
39769;BME280;38939;47.824;14.642;2022-12-18T05:30:39;98269.94;;;-5.17;79.85
39769;BME280;38939;47.824;14.642;2022-12-18T05:31:41;98269.13;;;-5.18;80.18
39769;BME280;38939;47.824;14.642;2022-12-18T05:32:43;98268.63;;;-5.07;79.98
39769;BME280;38939;47.824;14.642;2022-12-18T05:33:45;98271.84;;;-5.04;79.90
39769;BME280;38939;47.824;14.642;2022-12-18T05:34:47;98265.72;;;-4.99;79.88
39769;BME280;38939;47.824;14.642;2022-12-18T05:35:52;98269.84;;;-4.97;79.40
39769;BME280;38939;47.824;14.642;2022-12-18T05:36:54;98269.03;;;-4.97;79.91
39769;BME280;38939;47.824;14.642;2022-12-18T05:37:56;98270.69;;;-4.96;79.77
39769;BME280;38939;47.824;14.642;2022-12-18T05:38:58;98275.38;;;-5.06;79.72
39769;BME280;38939;47.824;14.642;2022-12-18T05:40:02;98274.63;;;-5.08;79.76
39769;BME280;38939;47.824;14.642;2022-12-18T05:41:04;98274.97;;;-5.16;79.83
39769;BME280;38939;47.824;14.642;2022-12-18T05:42:06;98264.94;;;-5.19;79.71
39769;BME280;38939;47.824;14.642;2022-12-18T05:43:08;98271.66;;;-5.18;80.01
39769;BME280;38939;47.824;14.642;2022-12-18T05:44:10;98272.28;;;-5.13;79.85
39769;BME280;38939;47.824;14.642;2022-12-18T05:45:12;98280.69;;;-5.11;80.07
39769;BME280;38939;47.824;14.642;2022-12-18T05:46:16;98279.22;;;-5.16;79.59
39769;BME280;38939;47.824;14.642;2022-12-18T05:47:19;98279.44;;;-5.21;80.23
39769;BME280;38939;47.824;14.642;2022-12-18T05:48:21;98282.22;;;-5.27;79.59
39769;BME280;38939;47.824;14.642;2022-12-18T05:49:23;98286.50;;;-5.28;79.59
39769;BME280;38939;47.824;14.642;2022-12-18T05:50:25;98284.94;;;-5.30;80.11
39769;BME280;38939;47.824;14.642;2022-12-18T05:51:27;98289.13;;;-5.29;80.32
39769;BME280;38939;47.824;14.642;2022-12-18T05:52:30;98288.88;;;-5.23;80.29
39769;BME280;38939;47.824;14.642;2022-12-18T05:53:32;98287.09;;;-5.21;80.38
39769;BME280;38939;47.824;14.642;2022-12-18T05:54:34;98285.28;;;-5.19;80.11
39769;BME280;38939;47.824;14.642;2022-12-18T05:55:36;98287.84;;;-5.19;79.90
39769;BME280;38939;47.824;14.642;2022-12-18T05:56:38;98293.97;;;-5.23;79.53
39769;BME280;38939;47.824;14.642;2022-12-18T05:57:47;98284.94;;;-5.30;79.84
39769;BME280;38939;47.824;14.642;2022-12-18T05:58:52;98285.06;;;-5.33;79.63
39769;BME280;38939;47.824;14.642;2022-12-18T05:59:54;98280.94;;;-5.36;79.88
39769;BME280;38939;47.824;14.642;2022-12-18T06:00:56;98284.94;;;-5.30;79.86